createdAt,value
2022-09-10T00:06:43.172Z,1008.63
2022-09-10T00:21:43.243Z,1008.68
2022-09-10T00:36:43.867Z,1008.69
2022-09-10T00:51:43.946Z,1008.68
2022-09-10T01:06:44.026Z,1008.70
2022-09-10T01:21:44.105Z,1008.68
2022-09-10T01:36:44.228Z,1008.60
2022-09-10T01:51:44.317Z,1008.56
2022-09-10T02:06:44.391Z,1008.69
2022-09-10T02:21:44.503Z,1008.75
2022-09-10T02:36:44.648Z,1008.85
2022-09-10T02:51:45.686Z,1008.94
2022-09-10T03:06:45.782Z,1008.86
2022-09-10T03:21:45.915Z,1008.86
2022-09-10T03:36:45.958Z,1008.85
2022-09-10T03:51:46.037Z,1008.86
2022-09-10T04:06:46.159Z,1008.78
2022-09-10T04:21:46.254Z,1008.92
2022-09-10T04:36:46.431Z,1008.88
2022-09-10T04:51:47.509Z,1008.84
2022-09-10T05:06:47.603Z,1008.81
2022-09-10T05:21:47.682Z,1008.85
2022-09-10T05:36:47.794Z,1008.84
2022-09-10T05:51:47.875Z,1008.93
2022-09-10T06:06:48.476Z,1008.95
2022-09-10T06:21:48.746Z,1009.20
2022-09-10T06:36:49.760Z,1009.37
2022-09-10T06:51:50.003Z,1009.32
2022-09-10T07:06:51.132Z,1009.38
2022-09-10T07:21:52.298Z,1009.41
2022-09-10T07:36:53.371Z,1009.42
2022-09-10T07:51:59.134Z,1009.41
2022-09-10T08:06:59.521Z,1009.54
2022-09-10T08:22:00.830Z,1009.66
2022-09-10T08:37:00.966Z,1009.63
2022-09-10T08:52:01.069Z,1009.69
2022-09-10T09:07:01.185Z,1009.69
2022-09-10T09:22:01.260Z,1009.67
2022-09-10T09:37:01.541Z,1009.68
2022-09-10T09:52:02.508Z,1009.64
2022-09-10T10:07:04.026Z,1009.57
2022-09-10T10:22:04.131Z,1009.43
2022-09-10T10:37:04.233Z,1009.43
2022-09-10T10:52:04.330Z,1009.39
2022-09-10T11:07:04.466Z,1009.38
2022-09-10T11:22:04.551Z,1009.44
2022-09-10T11:37:04.677Z,1009.40
2022-09-10T11:52:04.756Z,1009.29
2022-09-10T12:07:04.854Z,1009.25
2022-09-10T12:22:04.934Z,1009.21
2022-09-10T12:37:05.113Z,1009.07
2022-09-10T12:52:06.261Z,1008.96
2022-09-10T13:07:06.334Z,1008.87
2022-09-10T13:22:06.447Z,1008.74
2022-09-10T13:37:06.593Z,1008.65
2022-09-10T13:52:06.858Z,1008.78
2022-09-10T14:07:07.875Z,1008.77
2022-09-10T14:22:10.160Z,1008.73
2022-09-10T14:37:11.193Z,1008.68
2022-09-10T14:52:11.250Z,1008.66
2022-09-10T15:07:11.360Z,1008.78
2022-09-10T15:22:11.752Z,1008.77
2022-09-10T15:37:12.682Z,1008.76
2022-09-10T15:52:14.606Z,1008.89
2022-09-10T16:07:16.893Z,1008.78
2022-09-10T16:22:20.799Z,1008.83
2022-09-10T16:37:22.495Z,1009.15
2022-09-10T16:52:23.837Z,1009.32
2022-09-10T17:07:25.264Z,1009.29
2022-09-10T17:22:28.085Z,1009.19
2022-09-10T17:37:29.523Z,1009.45
2022-09-10T17:52:31.868Z,1009.51
2022-09-10T18:07:34.744Z,1009.73
2022-09-10T18:22:36.555Z,1009.77
2022-09-10T18:37:37.925Z,1009.89
2022-09-10T18:52:39.631Z,1009.84
2022-09-10T19:07:40.921Z,1009.88
2022-09-10T19:22:43.184Z,1009.85
2022-09-10T19:57:10.233Z,1009.75
2022-09-10T20:12:12.636Z,1009.86
2022-09-10T20:27:14.297Z,1009.88
2022-09-10T20:42:17.960Z,1009.92
2022-09-10T20:57:19.855Z,1009.99
2022-09-10T21:12:21.496Z,1010.00
2022-09-10T21:27:22.886Z,1009.98
2022-09-10T21:42:23.471Z,1010.06
2022-09-10T21:57:24.838Z,1010.25
2022-09-10T22:12:26.459Z,1010.28
2022-09-10T22:27:26.829Z,1010.30
2022-09-10T22:42:28.590Z,1010.20
2022-09-10T22:57:30.326Z,1010.43
2022-09-10T23:12:30.433Z,1010.45
2022-09-10T23:27:31.866Z,1010.58
2022-09-10T23:42:33.673Z,1010.64
2022-09-10T23:57:33.900Z,1010.75
